createdAt,value
2018-12-11T00:01:35.684Z,6.24
2018-12-11T00:04:05.777Z,6.10
2018-12-11T00:06:35.418Z,6.16
2018-12-11T00:09:05.639Z,6.33
2018-12-11T00:11:38.279Z,6.08
2018-12-11T00:16:52.152Z,6.20
2018-12-11T00:19:20.998Z,6.19
2018-12-11T00:21:49.810Z,6.17
2018-12-11T00:24:19.190Z,6.09
2018-12-11T00:26:48.047Z,6.09
2018-12-11T00:29:18.047Z,6.06
2018-12-11T00:31:47.391Z,6.07
2018-12-11T00:34:16.320Z,5.95
2018-12-11T00:36:45.132Z,5.87
2018-12-11T00:39:14.274Z,6.17
2018-12-11T00:41:43.062Z,6.07
2018-12-11T00:44:11.883Z,6.16
2018-12-11T00:46:40.975Z,5.96
2018-12-11T00:49:12.416Z,6.00
2018-12-11T00:51:41.211Z,5.93
2018-12-11T00:54:10.073Z,5.93
2018-12-11T00:56:38.854Z,5.94
2018-12-11T00:59:07.959Z,6.05
2018-12-11T01:01:51.645Z,5.84
2018-12-11T01:04:20.903Z,5.91
2018-12-11T01:06:49.687Z,5.87
2018-12-11T01:09:18.539Z,6.04
2018-12-11T01:11:47.771Z,6.08
2018-12-11T01:14:16.599Z,6.05
2018-12-11T01:16:46.418Z,6.00
2018-12-11T01:19:30.368Z,5.90
2018-12-11T01:21:59.208Z,5.92
2018-12-11T01:24:28.064Z,6.10
2018-12-11T01:26:57.275Z,5.93
2018-12-11T01:29:26.146Z,5.91
2018-12-11T01:31:55.009Z,5.97
2018-12-11T01:34:24.312Z,5.88
2018-12-11T01:36:53.176Z,6.16
2018-12-11T01:39:21.991Z,6.06
2018-12-11T01:41:51.220Z,6.07
2018-12-11T01:44:20.040Z,6.05
2018-12-11T01:46:49.041Z,5.98
2018-12-11T01:49:18.309Z,5.94
2018-12-11T01:51:47.167Z,6.05
2018-12-11T01:54:19.447Z,6.12
2018-12-11T01:56:48.496Z,6.00
2018-12-11T01:59:17.477Z,5.97
2018-12-11T02:01:46.405Z,5.84
2018-12-11T02:04:15.208Z,5.88
2018-12-11T02:06:44.336Z,6.00
2018-12-11T02:09:14.374Z,6.07
2018-12-11T02:11:43.164Z,5.98
2018-12-11T02:14:12.490Z,5.86
2018-12-11T02:16:41.267Z,5.78
2018-12-11T02:19:10.122Z,5.80
2018-12-11T02:21:42.043Z,5.73
2018-12-11T02:24:10.153Z,5.91
2018-12-11T02:26:46.202Z,5.79
2018-12-11T02:29:15.005Z,5.78
2018-12-11T02:31:46.895Z,5.80
2018-12-11T02:34:16.228Z,5.93
2018-12-11T02:36:46.172Z,6.05
2018-12-11T02:39:15.016Z,5.96
2018-12-11T02:41:47.876Z,5.74
2018-12-11T02:44:16.720Z,5.86
2018-12-11T02:46:45.593Z,5.84
2018-12-11T02:49:14.520Z,5.76
2018-12-11T02:51:43.281Z,5.90
2018-12-11T02:54:12.444Z,5.69
2018-12-11T02:56:41.577Z,5.69
2018-12-11T02:59:27.956Z,5.68
2018-12-11T03:01:57.058Z,5.67
2018-12-11T03:04:25.910Z,5.65
2018-12-11T03:06:54.793Z,5.72
2018-12-11T03:20:53.079Z,5.69
2018-12-11T03:23:21.940Z,5.58
2018-12-11T03:25:50.767Z,5.43
2018-12-11T03:28:20.190Z,5.71
2018-12-11T03:30:49.052Z,5.63
2018-12-11T03:33:17.872Z,5.48
2018-12-11T03:35:46.889Z,5.53
2018-12-11T03:38:16.168Z,5.84
2018-12-11T03:40:45.021Z,5.77
2018-12-11T03:43:13.921Z,5.64
2018-12-11T03:45:49.122Z,5.60
2018-12-11T03:48:18.022Z,5.39
2018-12-11T03:50:46.865Z,5.43
2018-12-11T03:53:16.122Z,5.38
2018-12-11T03:55:44.926Z,5.41
2018-12-11T03:58:13.818Z,5.40
2018-12-11T04:00:42.664Z,5.45
2018-12-11T04:03:17.897Z,5.44
2018-12-11T04:05:46.680Z,5.39
2018-12-11T04:08:15.491Z,5.43
2018-12-11T04:10:44.330Z,5.40
2018-12-11T04:13:13.111Z,5.45
2018-12-11T04:15:41.942Z,5.32
2018-12-11T04:18:10.707Z,5.33
2018-12-11T04:20:39.458Z,5.43
2018-12-11T04:23:09.531Z,5.34
2018-12-11T04:25:38.350Z,5.32
2018-12-11T04:28:09.168Z,5.35
2018-12-11T04:30:37.945Z,5.39
2018-12-11T04:33:06.747Z,5.33
2018-12-11T04:35:35.586Z,5.40
2018-12-11T04:38:05.177Z,5.36
2018-12-11T04:40:33.971Z,5.49
2018-12-11T04:43:03.288Z,5.55
2018-12-11T04:45:32.104Z,5.53
2018-12-11T04:48:00.994Z,5.71
2018-12-11T04:50:30.053Z,5.76
2018-12-11T04:52:59.319Z,5.77
2018-12-11T04:55:28.188Z,5.81
2018-12-11T04:57:57.009Z,5.60
2018-12-11T05:00:25.817Z,5.61
2018-12-11T05:02:58.890Z,5.73
2018-12-11T05:05:32.421Z,5.86
2018-12-11T05:08:04.335Z,5.92
2018-12-11T05:10:45.713Z,5.85
2018-12-11T05:13:14.700Z,5.90
2018-12-11T05:15:43.621Z,5.94
2018-12-11T05:18:12.804Z,5.74
2018-12-11T05:20:41.735Z,5.91
2018-12-11T05:23:10.586Z,5.97
2018-12-11T05:25:42.578Z,5.85
2018-12-11T05:28:11.746Z,5.62
2018-12-11T05:30:40.606Z,5.65
2018-12-11T05:33:10.478Z,5.73
2018-12-11T05:35:39.447Z,5.34
2018-12-11T05:38:13.119Z,5.38
2018-12-11T05:40:41.964Z,5.39
2018-12-11T05:43:10.793Z,5.31
2018-12-11T05:45:39.650Z,5.31
2018-12-11T05:48:15.301Z,5.27
2018-12-11T05:50:44.163Z,5.27
2018-12-11T05:53:12.987Z,5.31
2018-12-11T05:55:41.796Z,5.27
2018-12-11T05:58:17.837Z,5.31
2018-12-11T06:00:46.726Z,5.30
2018-12-11T06:03:19.271Z,5.33
2018-12-11T06:05:48.126Z,5.32
2018-12-11T06:08:17.487Z,5.30
2018-12-11T06:10:51.211Z,5.29
2018-12-11T06:13:20.150Z,5.32
2018-12-11T06:15:53.619Z,5.30
2018-12-11T06:18:22.455Z,5.32
2018-12-11T06:20:53.261Z,5.39
2018-12-11T06:23:22.098Z,5.44
2018-12-11T06:25:51.002Z,5.41
2018-12-11T06:28:19.828Z,5.28
2018-12-11T06:30:49.140Z,5.35
2018-12-11T06:33:22.916Z,5.50
2018-12-11T06:35:52.289Z,5.51
2018-12-11T06:38:28.011Z,5.45
2018-12-11T06:40:56.892Z,5.50
2018-12-11T06:43:26.912Z,5.45
2018-12-11T06:45:56.070Z,5.44
2018-12-11T06:48:27.920Z,5.59
2018-12-11T06:50:56.752Z,5.69
2018-12-11T06:53:25.673Z,5.51
2018-12-11T06:55:54.574Z,5.65
2018-12-11T06:58:23.440Z,5.49
2018-12-11T07:00:52.313Z,5.51
2018-12-11T07:03:21.479Z,5.53
2018-12-11T07:05:56.807Z,5.74
2018-12-11T07:08:25.636Z,5.45
2018-12-11T07:10:54.828Z,5.44
2018-12-11T07:13:23.678Z,5.48
2018-12-11T07:15:52.587Z,5.58
2018-12-11T07:18:27.341Z,5.72
2018-12-11T07:20:56.165Z,5.59
2018-12-11T07:23:25.003Z,5.56
2018-12-11T07:25:53.838Z,5.46
2018-12-11T07:28:29.178Z,5.55
2018-12-11T07:30:58.070Z,5.71
2018-12-11T07:33:26.922Z,5.74
2018-12-11T07:35:59.684Z,5.54
2018-12-11T07:38:28.844Z,5.36
2018-12-11T07:40:57.695Z,5.34
2018-12-11T07:43:32.540Z,5.38
2018-12-11T07:46:02.331Z,5.50
2018-12-11T07:48:32.228Z,5.44
2018-12-11T07:51:06.402Z,5.37
2018-12-11T07:53:35.570Z,5.35
2018-12-11T07:58:44.342Z,5.39
2018-12-11T08:01:19.822Z,5.40
2018-12-11T08:03:49.872Z,5.46
2018-12-11T08:06:18.746Z,5.47
2018-12-11T08:08:57.736Z,5.55
2018-12-11T08:11:31.320Z,5.60
2018-12-11T08:14:00.217Z,5.76
2018-12-11T08:16:31.059Z,5.67
2018-12-11T08:19:01.141Z,5.72
2018-12-11T08:21:30.025Z,5.95
2018-12-11T08:23:59.225Z,5.86
2018-12-11T08:26:28.102Z,5.89
2018-12-11T08:29:08.512Z,5.94
2018-12-11T08:31:37.670Z,5.92
2018-12-11T08:34:12.726Z,5.93
2018-12-11T08:36:41.631Z,5.87
2018-12-11T08:39:10.818Z,6.04
2018-12-11T08:41:39.673Z,6.11
2018-12-11T08:44:09.244Z,6.03
2018-12-11T08:46:38.407Z,5.96
2018-12-11T08:49:12.059Z,6.09
2018-12-11T08:51:40.952Z,6.07
2018-12-11T08:54:15.459Z,6.06
2018-12-11T08:56:44.347Z,6.26
2018-12-11T08:59:24.064Z,5.99
2018-12-11T09:01:54.160Z,6.00
2018-12-11T09:04:23.021Z,6.13
2018-12-11T09:06:55.112Z,6.29
2018-12-11T09:09:24.046Z,6.07
2018-12-11T09:11:52.965Z,6.05
2018-12-11T09:14:21.892Z,5.85
2018-12-11T09:16:51.106Z,5.91
2018-12-11T09:19:20.786Z,5.82
2018-12-11T09:21:49.637Z,5.91
2018-12-11T09:24:19.748Z,6.02
2018-12-11T09:26:49.828Z,6.01
2018-12-11T09:29:18.739Z,6.02
2018-12-11T09:31:47.903Z,6.22
2018-12-11T09:34:18.231Z,6.57
2018-12-11T09:36:47.864Z,6.92
2018-12-11T09:39:17.567Z,6.97
2018-12-11T09:41:46.756Z,6.86
2018-12-11T09:44:15.757Z,6.95
2018-12-11T09:46:44.968Z,6.86
2018-12-11T09:49:17.367Z,6.72
2018-12-11T09:51:46.375Z,6.78
2018-12-11T09:54:15.640Z,6.88
2018-12-11T09:56:44.512Z,7.18
2018-12-11T09:59:13.367Z,6.94
2018-12-11T10:01:42.574Z,6.73
2018-12-11T10:04:11.479Z,6.74
2018-12-11T10:06:40.284Z,6.69
2018-12-11T10:09:10.477Z,6.77
2018-12-11T10:11:39.291Z,6.77
2018-12-11T10:14:12.950Z,6.91
2018-12-11T10:16:42.117Z,7.03
2018-12-11T10:19:10.997Z,7.06
2018-12-11T10:24:21.721Z,7.11
2018-12-11T10:26:50.857Z,7.15
2018-12-11T10:29:19.765Z,7.25
2018-12-11T10:31:54.005Z,7.41
2018-12-11T10:34:30.980Z,7.35
2018-12-11T10:37:00.464Z,7.20
2018-12-11T10:39:29.496Z,7.26
2018-12-11T10:41:59.413Z,7.17
2018-12-11T10:44:29.865Z,7.23
2018-12-11T10:46:58.743Z,7.26
2018-12-11T10:49:33.313Z,7.62
2018-12-11T10:52:03.299Z,7.62
2018-12-11T10:54:36.732Z,7.66
2018-12-11T10:57:05.711Z,7.56
2018-12-11T10:59:37.532Z,7.58
2018-12-11T11:02:11.382Z,7.88
2018-12-11T11:04:40.544Z,7.90
2018-12-11T11:07:10.157Z,8.14
2018-12-11T11:09:39.012Z,7.97
2018-12-11T11:12:07.935Z,8.18
2018-12-11T11:14:37.623Z,8.74
2018-12-11T11:17:06.523Z,9.01
2018-12-11T11:19:35.710Z,9.04
2018-12-11T11:22:08.058Z,9.07
2018-12-11T11:24:37.720Z,9.34
2018-12-11T11:27:07.047Z,9.24
2018-12-11T11:29:36.033Z,9.34
2018-12-11T11:32:07.308Z,9.32
2018-12-11T11:34:50.463Z,9.44
2018-12-11T11:37:19.406Z,9.40
2018-12-11T11:39:48.645Z,9.20
2018-12-11T11:44:54.400Z,8.84
2018-12-11T11:47:23.275Z,8.77
2018-12-11T11:49:52.054Z,8.67
2018-12-11T11:52:21.223Z,8.78
2018-12-11T11:54:50.088Z,8.57
2018-12-11T11:57:19.025Z,8.60
2018-12-11T11:59:48.771Z,8.69
2018-12-11T12:02:19.510Z,8.78
2018-12-11T12:04:48.530Z,8.71
2018-12-11T12:07:18.502Z,8.71
2018-12-11T12:09:49.889Z,8.74
2018-12-11T12:12:18.770Z,8.69
2018-12-11T12:14:49.169Z,8.65
2018-12-11T12:19:58.075Z,8.69
2018-12-11T12:22:27.316Z,8.68
2018-12-11T12:24:56.150Z,8.64
2018-12-11T12:27:26.383Z,8.64
2018-12-11T12:29:58.964Z,8.61
2018-12-11T12:32:27.842Z,8.66
2018-12-11T12:34:56.712Z,8.64
2018-12-11T12:40:06.508Z,8.73
2018-12-11T12:42:36.362Z,8.89
2018-12-11T12:45:05.695Z,8.89
2018-12-11T12:47:34.780Z,8.98
2018-12-11T12:50:05.837Z,9.17
2018-12-11T12:52:34.639Z,9.21
2018-12-11T12:55:05.079Z,9.30
2018-12-11T12:57:38.540Z,9.36
2018-12-11T13:00:08.995Z,9.21
2018-12-11T13:02:37.961Z,9.16
2018-12-11T13:05:09.631Z,9.07
2018-12-11T13:07:38.786Z,9.04
2018-12-11T13:10:08.142Z,8.96
2018-12-11T13:12:37.290Z,9.01
2018-12-11T13:15:08.788Z,9.00
2018-12-11T13:17:37.671Z,8.93
2018-12-11T13:20:08.185Z,8.95
2018-12-11T13:22:37.622Z,8.94
2018-12-11T13:25:06.741Z,8.96
2018-12-11T13:27:36.418Z,8.99
2018-12-11T13:30:06.857Z,9.08
2018-12-11T13:32:35.676Z,8.95
2018-12-11T13:35:05.047Z,8.85
2018-12-11T13:37:34.247Z,8.87
2018-12-11T13:40:05.090Z,8.85
2018-12-11T13:42:34.130Z,8.88
2018-12-11T13:45:04.539Z,8.74
2018-12-11T13:47:39.293Z,8.79
2018-12-11T13:50:10.874Z,8.73
2018-12-11T13:52:39.847Z,8.80
2018-12-11T13:55:09.336Z,8.74
2018-12-11T13:57:38.545Z,8.73
2018-12-11T14:00:13.218Z,8.72
2018-12-11T14:02:47.878Z,8.75
2018-12-11T14:05:17.268Z,8.76
2018-12-11T14:07:46.152Z,8.70
2018-12-11T14:10:15.262Z,8.69
2018-12-11T14:12:44.542Z,8.69
2018-12-11T14:15:13.415Z,8.66
2018-12-11T14:17:42.285Z,8.78
2018-12-11T14:20:12.444Z,8.58
2018-12-11T14:22:42.088Z,8.65
2018-12-11T14:25:10.942Z,8.62
2018-12-11T14:27:40.094Z,8.68
2018-12-11T14:30:17.317Z,8.60
2018-12-11T14:32:46.189Z,8.66
2018-12-11T14:35:15.834Z,8.59
2018-12-11T14:37:44.686Z,8.54
2018-12-11T14:40:14.128Z,8.48
2018-12-11T14:42:47.902Z,8.46
2018-12-11T14:45:16.801Z,8.45
2018-12-11T14:47:47.131Z,8.40
2018-12-11T14:50:16.002Z,8.46
2018-12-11T14:52:45.312Z,8.45
2018-12-11T14:55:14.526Z,8.48
2018-12-11T14:57:48.935Z,8.38
2018-12-11T15:00:20.488Z,8.58
2018-12-11T15:02:49.554Z,8.35
2018-12-11T15:07:52.920Z,8.40
2018-12-11T15:10:23.038Z,8.37
2018-12-11T15:12:54.167Z,8.31
2018-12-11T15:15:23.517Z,8.33
2018-12-11T15:17:53.236Z,8.38
2018-12-11T15:20:22.105Z,8.36
2018-12-11T15:24:22.335Z,8.34
2018-12-11T15:26:51.311Z,8.33
2018-12-11T15:29:20.127Z,8.34
2018-12-11T15:31:49.818Z,8.30
2018-12-11T15:34:19.061Z,8.29
2018-12-11T15:36:50.595Z,8.25
2018-12-11T15:39:19.487Z,8.27
2018-12-11T15:41:52.264Z,8.34
2018-12-11T15:44:21.199Z,8.28
2018-12-11T15:46:53.512Z,8.12
2018-12-11T15:49:23.188Z,8.01
2018-12-11T15:54:31.941Z,7.66
2018-12-11T15:57:05.392Z,7.59
2018-12-11T15:59:34.257Z,7.42
2018-12-11T16:02:08.926Z,7.34
2018-12-11T16:04:37.801Z,7.25
2018-12-11T16:07:11.844Z,7.21
2018-12-11T16:09:40.966Z,7.10
2018-12-11T16:12:10.859Z,6.98
2018-12-11T16:14:39.704Z,6.94
2018-12-11T16:17:08.849Z,6.92
2018-12-11T16:22:17.446Z,6.79
2018-12-11T16:24:47.089Z,6.90
2018-12-11T16:27:16.280Z,6.94
2018-12-11T16:29:45.142Z,6.89
2018-12-11T16:32:21.666Z,6.92
2018-12-11T16:34:52.311Z,6.93
2018-12-11T16:37:21.742Z,7.00
2018-12-11T16:39:52.914Z,6.96
2018-12-11T16:42:24.225Z,6.99
2018-12-11T16:44:53.487Z,6.94
2018-12-11T16:47:25.198Z,6.83
2018-12-11T16:50:00.627Z,6.75
2018-12-11T16:52:29.898Z,6.69
2018-12-11T16:54:58.747Z,6.68
2018-12-11T16:57:27.964Z,6.69
2018-12-11T16:59:57.068Z,6.90
2018-12-11T17:02:27.203Z,6.86
2018-12-11T17:05:02.760Z,6.90
2018-12-11T17:07:32.042Z,6.71
2018-12-11T17:10:01.185Z,6.65
2018-12-11T17:12:30.729Z,6.70
2018-12-11T17:15:01.747Z,6.57
2018-12-11T17:17:31.043Z,6.58
2018-12-11T17:20:08.322Z,6.55
2018-12-11T17:22:38.262Z,6.54
2018-12-11T17:25:08.135Z,6.59
2018-12-11T17:27:37.753Z,6.60
2018-12-11T17:30:07.860Z,6.92
2018-12-11T17:32:37.404Z,6.74
2018-12-11T17:35:08.588Z,6.64
2018-12-11T17:37:40.417Z,6.57
2018-12-11T17:40:12.636Z,6.58
2018-12-11T17:42:43.125Z,6.82
2018-12-11T17:45:12.389Z,6.60
2018-12-11T17:47:43.435Z,6.60
2018-12-11T17:50:13.116Z,6.84
2018-12-11T17:52:42.766Z,6.69
2018-12-11T17:55:12.738Z,6.52
2018-12-11T17:57:43.536Z,6.53
2018-12-11T18:00:13.391Z,6.52
2018-12-11T18:02:43.711Z,6.43
2018-12-11T18:05:13.365Z,6.35
2018-12-11T18:07:42.853Z,6.29
2018-12-11T18:12:56.875Z,6.20
2018-12-11T18:15:26.589Z,6.08
2018-12-11T18:17:56.079Z,6.00
2018-12-11T18:20:26.077Z,6.09
2018-12-11T18:22:55.542Z,6.07
2018-12-11T18:25:29.109Z,6.03
2018-12-11T18:27:59.498Z,5.97
2018-12-11T18:30:29.519Z,5.98
2018-12-11T18:32:59.552Z,5.84
2018-12-11T18:35:29.366Z,6.03
2018-12-11T18:37:59.221Z,5.97
2018-12-11T18:40:30.590Z,6.02
2018-12-11T18:43:00.291Z,5.83
2018-12-11T18:45:30.443Z,6.00
2018-12-11T18:48:00.791Z,6.09
2018-12-11T18:50:30.533Z,5.98
2018-12-11T18:53:01.024Z,6.01
2018-12-11T18:55:31.429Z,5.96
2018-12-11T18:58:05.525Z,6.05
2018-12-11T19:00:35.571Z,6.01
2018-12-11T19:03:07.302Z,5.90
2018-12-11T19:05:38.125Z,5.85
2018-12-11T19:08:08.124Z,5.86
2018-12-11T19:10:38.422Z,5.90
2018-12-11T19:13:08.988Z,5.97
2018-12-11T19:18:23.118Z,5.82
2018-12-11T19:20:53.328Z,5.73
2018-12-11T19:23:38.112Z,5.75
2018-12-11T19:26:08.391Z,5.86
2018-12-11T19:28:38.308Z,5.90
2018-12-11T19:31:07.892Z,5.73
2018-12-11T19:33:38.234Z,5.63
2018-12-11T19:36:08.165Z,5.96
2018-12-11T19:38:39.659Z,5.72
2018-12-11T19:43:45.631Z,5.77
2018-12-11T19:46:15.259Z,5.67
2018-12-11T19:48:49.803Z,5.77
2018-12-11T19:51:20.359Z,5.50
2018-12-11T19:53:50.946Z,5.48
2018-12-11T19:56:21.073Z,5.51
2018-12-11T19:58:56.679Z,5.66
2018-12-11T20:01:26.493Z,5.58
2018-12-11T20:03:56.540Z,5.52
2018-12-11T20:06:27.516Z,5.53
2018-12-11T20:08:58.008Z,5.64
2018-12-11T20:11:36.384Z,5.60
2018-12-11T20:14:07.407Z,5.64
2018-12-11T20:16:38.263Z,5.62
2018-12-11T20:19:07.895Z,5.59
2018-12-11T20:21:38.058Z,5.74
2018-12-11T20:24:17.021Z,5.89
2018-12-11T20:26:47.035Z,5.95
2018-12-11T20:29:20.188Z,5.75
2018-12-11T20:31:53.168Z,5.76
2018-12-11T20:34:28.251Z,5.72
2018-12-11T20:36:59.087Z,5.85
2018-12-11T20:39:30.555Z,5.82
2018-12-11T20:42:07.208Z,5.64
2018-12-11T20:44:37.001Z,5.68
2018-12-11T20:47:07.426Z,5.52
2018-12-11T20:49:37.090Z,5.25
2018-12-11T20:52:06.799Z,5.29
2018-12-11T20:54:46.650Z,5.38
2018-12-11T20:57:17.136Z,5.28
2018-12-11T20:59:48.894Z,5.14
2018-12-11T21:02:18.598Z,5.38
2018-12-11T21:04:49.104Z,5.08
2018-12-11T21:07:19.689Z,5.02
2018-12-11T21:09:51.209Z,5.01
2018-12-11T21:12:21.769Z,5.05
2018-12-11T21:14:51.364Z,5.02
2018-12-11T21:17:22.023Z,5.02
2018-12-11T21:19:57.917Z,4.91
2018-12-11T21:22:27.962Z,4.87
2018-12-11T21:24:58.065Z,4.91
2018-12-11T21:27:30.119Z,4.95
2018-12-11T21:29:59.657Z,4.88
2018-12-11T21:32:34.867Z,4.87
2018-12-11T21:35:05.741Z,4.92
2018-12-11T21:37:35.353Z,4.93
2018-12-11T21:40:07.526Z,4.90
2018-12-11T21:42:38.427Z,5.14
2018-12-11T21:45:07.947Z,5.05
2018-12-11T21:47:53.030Z,5.04
2018-12-11T21:50:22.040Z,4.93
2018-12-11T21:52:52.081Z,4.87
2018-12-11T21:55:21.269Z,4.88
2018-12-11T21:57:50.999Z,4.88
2018-12-11T22:02:45.490Z,4.94
2018-12-11T22:05:14.354Z,4.90
2018-12-11T22:07:43.274Z,4.92
2018-12-11T22:10:12.125Z,4.85
2018-12-11T22:12:46.203Z,4.80
2018-12-11T22:15:15.212Z,4.77
2018-12-11T22:17:44.430Z,4.97
2018-12-11T22:20:15.423Z,5.03
2018-12-11T22:22:46.016Z,4.90
2018-12-11T22:25:15.426Z,4.86
2018-12-11T22:27:44.793Z,4.90
2018-12-11T22:30:13.698Z,4.91
2018-12-11T22:37:29.238Z,4.97
2018-12-11T22:39:59.326Z,4.95
2018-12-11T22:45:03.615Z,4.93
2018-12-11T22:47:32.495Z,4.94
2018-12-11T22:50:03.379Z,5.01
2018-12-11T22:52:32.250Z,5.13
2018-12-11T22:55:01.421Z,5.05
2018-12-11T22:57:30.973Z,5.05
2018-12-11T22:59:59.886Z,5.04
2018-12-11T23:02:35.462Z,5.03
2018-12-11T23:05:04.897Z,4.92
2018-12-11T23:07:38.698Z,4.89
2018-12-11T23:12:38.802Z,4.92
2018-12-11T23:15:08.405Z,4.95
2018-12-11T23:17:37.549Z,4.96
2018-12-11T23:20:06.452Z,4.98
2018-12-11T23:22:35.537Z,5.03
2018-12-11T23:25:09.593Z,5.05
2018-12-11T23:27:38.956Z,5.06
2018-12-11T23:30:08.353Z,5.08
2018-12-11T23:32:41.067Z,5.03
2018-12-11T23:37:44.344Z,4.96
2018-12-11T23:40:13.668Z,4.94
2018-12-11T23:42:43.244Z,4.96
2018-12-11T23:45:16.071Z,4.94
2018-12-11T23:47:45.019Z,4.95
2018-12-11T23:50:13.868Z,4.97
2018-12-11T23:52:47.524Z,4.85
2018-12-11T23:55:16.335Z,4.85
2018-12-11T23:57:45.443Z,4.86
